createdAt,value
2023-05-16T00:02:01.652Z,11.47
2023-05-16T00:04:37.819Z,11.43
2023-05-16T00:07:22.764Z,11.44
2023-05-16T00:09:57.076Z,11.43
2023-05-16T00:12:30.924Z,11.47
2023-05-16T00:15:03.709Z,11.46
2023-05-16T00:17:39.912Z,11.36
2023-05-16T00:20:15.222Z,11.41
2023-05-16T00:22:50.373Z,11.45
2023-05-16T00:25:24.919Z,11.36
2023-05-16T00:28:02.905Z,11.42
2023-05-16T00:30:43.607Z,11.38
2023-05-16T00:33:15.822Z,11.39
2023-05-16T00:35:46.058Z,11.35
2023-05-16T00:38:23.155Z,11.33
2023-05-16T00:40:55.760Z,11.28
2023-05-16T00:43:31.720Z,11.14
2023-05-16T00:46:03.200Z,11.08
2023-05-16T00:48:40.649Z,11.02
2023-05-16T00:51:12.744Z,10.94
2023-05-16T00:53:54.189Z,10.89
2023-05-16T00:56:28.378Z,11.01
2023-05-16T00:59:02.378Z,11.00
2023-05-16T01:01:46.376Z,11.04
2023-05-16T01:04:16.723Z,11.03
2023-05-16T01:06:50.614Z,11.20
2023-05-16T01:09:23.835Z,11.15
2023-05-16T01:12:04.503Z,11.13
2023-05-16T01:14:54.219Z,11.12
2023-05-16T01:17:33.458Z,11.13
2023-05-16T01:20:17.878Z,11.13
2023-05-16T01:23:04.398Z,11.08
2023-05-16T01:25:49.473Z,11.16
2023-05-16T01:28:26.067Z,11.05
2023-05-16T01:30:58.451Z,11.09
2023-05-16T01:33:31.451Z,11.10
2023-05-16T01:36:13.961Z,11.04
2023-05-16T01:39:03.266Z,11.03
2023-05-16T01:41:44.134Z,11.13
2023-05-16T01:44:28.269Z,10.98
2023-05-16T01:47:05.011Z,11.02
2023-05-16T01:49:47.113Z,10.95
2023-05-16T01:52:31.763Z,10.95
2023-05-16T01:55:06.211Z,10.96
2023-05-16T01:57:40.705Z,11.01
2023-05-16T02:00:17.506Z,11.08
2023-05-16T02:02:50.389Z,11.18
2023-05-16T02:05:24.703Z,11.17
2023-05-16T02:07:58.288Z,11.28
2023-05-16T02:10:30.598Z,11.32
2023-05-16T02:13:02.626Z,11.26
2023-05-16T02:15:38.278Z,11.37
2023-05-16T02:18:10.519Z,11.23
2023-05-16T02:20:41.022Z,11.27
2023-05-16T02:23:14.260Z,11.24
2023-05-16T02:25:51.533Z,11.29
2023-05-16T02:28:28.829Z,11.23
2023-05-16T02:31:07.709Z,11.32
2023-05-16T02:33:42.124Z,11.38
2023-05-16T02:36:14.927Z,11.40
2023-05-16T02:38:54.670Z,11.51
2023-05-16T02:41:25.947Z,11.55
2023-05-16T02:44:01.038Z,11.48
2023-05-16T02:46:39.074Z,11.43
2023-05-16T02:49:14.087Z,11.37
2023-05-16T02:51:55.178Z,11.25
2023-05-16T02:54:36.722Z,11.23
2023-05-16T02:57:16.180Z,11.31
2023-05-16T02:59:47.340Z,11.25
2023-05-16T03:02:28.641Z,11.26
2023-05-16T03:05:01.513Z,11.29
2023-05-16T03:07:34.270Z,11.23
2023-05-16T03:10:07.778Z,11.16
2023-05-16T03:12:38.836Z,11.29
2023-05-16T03:15:13.414Z,11.28
2023-05-16T03:17:48.835Z,11.43
2023-05-16T03:20:24.696Z,11.49
2023-05-16T03:22:57.229Z,11.55
2023-05-16T03:25:36.604Z,11.49
2023-05-16T03:28:08.759Z,11.42
2023-05-16T03:30:41.509Z,11.49
2023-05-16T03:33:17.416Z,11.55
2023-05-16T03:35:58.582Z,11.62
2023-05-16T03:38:31.518Z,11.66
2023-05-16T03:41:04.434Z,11.71
2023-05-16T03:43:39.159Z,11.74
2023-05-16T03:46:13.176Z,11.74
2023-05-16T03:48:49.011Z,11.69
2023-05-16T03:51:20.872Z,11.76
2023-05-16T03:53:50.713Z,11.82
2023-05-16T03:56:35.747Z,11.85
2023-05-16T03:59:11.270Z,11.83
2023-05-16T04:01:50.509Z,11.91
2023-05-16T04:04:31.931Z,11.86
2023-05-16T04:07:01.179Z,11.76
2023-05-16T04:09:38.656Z,11.78
2023-05-16T04:12:14.089Z,11.79
2023-05-16T04:15:00.185Z,11.83
2023-05-16T04:17:42.588Z,11.80
2023-05-16T04:20:19.797Z,11.72
2023-05-16T04:22:52.800Z,11.64
2023-05-16T04:25:24.106Z,11.38
2023-05-16T04:27:56.175Z,11.38
2023-05-16T04:30:25.872Z,11.37
2023-05-16T04:32:55.979Z,11.24
2023-05-16T04:35:34.369Z,11.26
2023-05-16T04:38:16.587Z,11.11
2023-05-16T04:40:48.130Z,10.91
2023-05-16T04:43:19.097Z,10.97
2023-05-16T04:45:55.568Z,11.11
2023-05-16T04:48:31.139Z,11.02
2023-05-16T04:51:06.768Z,10.95
2023-05-16T04:53:38.645Z,10.87
2023-05-16T04:56:13.204Z,10.89
2023-05-16T04:58:43.328Z,10.89
2023-05-16T05:01:15.183Z,10.85
2023-05-16T05:03:48.432Z,10.87
2023-05-16T05:06:24.486Z,10.87
2023-05-16T05:08:54.649Z,10.76
2023-05-16T05:11:24.968Z,10.73
2023-05-16T05:13:59.142Z,10.69
2023-05-16T05:16:33.894Z,10.71
2023-05-16T05:19:07.983Z,10.72
2023-05-16T05:21:43.220Z,10.67
2023-05-16T05:24:15.524Z,10.63
2023-05-16T05:26:50.044Z,10.73
2023-05-16T05:29:27.289Z,10.67
2023-05-16T05:32:00.132Z,10.68
2023-05-16T05:34:32.967Z,10.72
2023-05-16T05:39:59.846Z,10.62
2023-05-16T05:42:31.360Z,10.67
2023-05-16T05:45:04.848Z,10.70
2023-05-16T05:47:36.910Z,10.73
2023-05-16T05:50:08.258Z,10.57
2023-05-16T05:52:41.313Z,10.60
2023-05-16T05:55:14.283Z,10.71
2023-05-16T05:57:48.428Z,10.71
2023-05-16T06:00:24.737Z,10.71
2023-05-16T06:02:55.892Z,10.83
2023-05-16T06:05:32.883Z,10.82
2023-05-16T06:08:06.905Z,10.74
2023-05-16T06:10:40.180Z,10.74
2023-05-16T06:13:25.729Z,10.87
2023-05-16T06:16:00.638Z,10.90
2023-05-16T06:18:31.739Z,10.83
2023-05-16T06:21:13.937Z,10.98
2023-05-16T06:23:49.196Z,10.99
2023-05-16T06:26:19.046Z,10.97
2023-05-16T06:28:54.636Z,11.00
2023-05-16T06:31:29.319Z,10.96
2023-05-16T06:34:04.984Z,11.00
2023-05-16T06:36:36.539Z,10.52
2023-05-16T06:39:13.085Z,10.48
2023-05-16T06:41:48.702Z,10.36
2023-05-16T06:44:21.776Z,10.42
2023-05-16T06:47:12.890Z,10.34
2023-05-16T06:49:46.018Z,10.31
2023-05-16T06:52:18.087Z,10.44
2023-05-16T06:54:57.987Z,10.22
2023-05-16T06:57:30.980Z,10.09
2023-05-16T07:00:01.961Z,9.99
2023-05-16T07:02:39.321Z,10.16
2023-05-16T07:05:12.060Z,9.98
2023-05-16T07:07:47.264Z,9.95
2023-05-16T07:10:37.416Z,9.90
2023-05-16T07:13:13.654Z,10.04
2023-05-16T07:15:48.600Z,9.99
2023-05-16T07:18:20.652Z,10.03
2023-05-16T07:20:54.841Z,10.11
2023-05-16T07:23:27.520Z,10.17
2023-05-16T07:26:18.868Z,10.34
2023-05-16T07:28:49.396Z,10.37
2023-05-16T07:31:21.453Z,10.37
2023-05-16T07:33:54.667Z,10.60
2023-05-16T07:36:27.544Z,10.58
2023-05-16T07:39:01.528Z,10.64
2023-05-16T07:41:35.559Z,10.65
2023-05-16T07:44:11.486Z,10.78
2023-05-16T07:46:45.491Z,10.68
2023-05-16T07:49:23.252Z,10.68
2023-05-16T07:52:01.007Z,10.84
2023-05-16T07:54:34.566Z,10.82
2023-05-16T07:57:15.062Z,10.68
2023-05-16T07:59:48.130Z,10.76
2023-05-16T08:02:20.647Z,10.53
2023-05-16T08:04:51.525Z,10.52
2023-05-16T08:07:25.321Z,10.64
2023-05-16T08:09:56.019Z,10.78
2023-05-16T08:12:36.565Z,10.86
2023-05-16T08:15:12.246Z,10.86
2023-05-16T08:17:46.097Z,11.00
2023-05-16T08:20:18.872Z,11.21
2023-05-16T08:22:56.997Z,11.46
2023-05-16T08:25:28.522Z,11.28
2023-05-16T08:28:05.194Z,11.33
2023-05-16T08:30:43.112Z,11.37
2023-05-16T08:33:16.695Z,11.53
2023-05-16T08:35:53.464Z,11.62
2023-05-16T08:38:29.069Z,11.61
2023-05-16T08:41:00.816Z,11.43
2023-05-16T08:43:40.513Z,11.43
2023-05-16T08:46:14.820Z,11.55
2023-05-16T08:48:52.285Z,11.72
2023-05-16T08:51:28.631Z,11.58
2023-05-16T08:54:08.729Z,11.61
2023-05-16T08:56:44.813Z,11.70
2023-05-16T08:59:25.364Z,11.93
2023-05-16T09:01:55.414Z,11.74
2023-05-16T09:04:27.010Z,11.91
2023-05-16T09:06:59.579Z,11.33
2023-05-16T09:09:30.675Z,11.38
2023-05-16T09:12:02.306Z,11.56
2023-05-16T09:14:37.211Z,11.27
2023-05-16T09:17:31.991Z,11.12
2023-05-16T09:20:12.730Z,11.24
2023-05-16T09:22:44.225Z,11.46
2023-05-16T09:25:29.410Z,11.36
2023-05-16T09:28:03.325Z,11.20
2023-05-16T09:30:37.687Z,11.16
2023-05-16T09:33:08.860Z,11.32
2023-05-16T09:35:45.413Z,11.44
2023-05-16T09:38:18.904Z,11.27
2023-05-16T09:40:52.760Z,11.30
2023-05-16T09:43:28.263Z,11.33
2023-05-16T09:46:02.669Z,11.41
2023-05-16T09:48:31.977Z,11.70
2023-05-16T09:51:04.895Z,12.18
2023-05-16T09:53:36.761Z,12.47
2023-05-16T09:56:09.003Z,12.58
2023-05-16T09:58:42.106Z,12.73
2023-05-16T10:01:14.684Z,12.74
2023-05-16T10:03:45.461Z,12.76
2023-05-16T10:06:17.981Z,12.73
2023-05-16T10:08:50.865Z,12.73
2023-05-16T10:11:22.286Z,13.27
2023-05-16T10:13:54.296Z,13.75
2023-05-16T10:16:25.491Z,13.68
2023-05-16T10:18:58.189Z,14.26
2023-05-16T10:21:29.959Z,14.12
2023-05-16T10:24:06.459Z,14.02
2023-05-16T10:26:36.679Z,14.37
2023-05-16T10:29:06.306Z,14.59
2023-05-16T10:31:37.572Z,14.84
2023-05-16T10:34:07.949Z,15.13
2023-05-16T10:36:38.083Z,14.75
2023-05-16T10:39:06.911Z,14.55
2023-05-16T10:41:36.636Z,14.44
2023-05-16T10:44:06.006Z,14.32
2023-05-16T10:46:37.584Z,14.22
2023-05-16T10:49:21.835Z,14.33
2023-05-16T10:52:04.645Z,14.50
2023-05-16T10:54:44.134Z,14.08
2023-05-16T10:57:15.815Z,14.08
2023-05-16T10:59:46.771Z,14.18
2023-05-16T11:02:43.469Z,15.27
2023-05-16T11:05:15.783Z,15.00
2023-05-16T11:07:44.480Z,15.25
2023-05-16T11:10:17.680Z,15.11
2023-05-16T11:12:49.719Z,14.74
2023-05-16T11:15:23.687Z,14.26
2023-05-16T11:18:04.935Z,14.26
2023-05-16T11:20:34.638Z,14.88
2023-05-16T11:23:23.370Z,15.03
2023-05-16T11:25:54.966Z,15.90
2023-05-16T11:28:27.650Z,16.16
2023-05-16T11:31:00.404Z,16.06
2023-05-16T11:33:36.756Z,16.20
2023-05-16T11:36:15.998Z,16.35
2023-05-16T11:38:45.132Z,16.36
2023-05-16T11:41:16.807Z,16.10
2023-05-16T11:43:46.922Z,15.05
2023-05-16T11:46:16.730Z,15.53
2023-05-16T11:48:47.875Z,15.74
2023-05-16T11:51:21.510Z,16.44
2023-05-16T11:53:51.161Z,16.42
2023-05-16T11:56:20.451Z,15.40
2023-05-16T11:58:49.315Z,15.87
2023-05-16T12:01:23.301Z,16.50
2023-05-16T12:04:00.081Z,17.18
2023-05-16T12:06:31.389Z,16.57
2023-05-16T12:08:59.717Z,15.71
2023-05-16T12:11:28.556Z,15.94
2023-05-16T12:13:57.471Z,16.11
2023-05-16T12:16:25.873Z,16.28
2023-05-16T12:18:54.734Z,16.92
2023-05-16T12:21:27.063Z,17.23
2023-05-16T12:23:57.276Z,17.04
2023-05-16T12:26:28.168Z,17.27
2023-05-16T12:29:00.798Z,17.66
2023-05-16T12:31:32.627Z,17.06
2023-05-16T12:34:01.673Z,16.95
2023-05-16T12:36:36.192Z,17.51
2023-05-16T12:39:05.483Z,17.42
2023-05-16T12:41:34.949Z,17.74
2023-05-16T12:44:13.964Z,17.08
2023-05-16T12:46:46.633Z,17.69
2023-05-16T12:49:16.605Z,17.97
2023-05-16T12:51:52.740Z,17.89
2023-05-16T12:54:24.180Z,17.03
2023-05-16T12:56:52.363Z,16.79
2023-05-16T12:59:20.910Z,17.53
2023-05-16T13:01:50.317Z,18.03
2023-05-16T13:04:20.285Z,18.23
2023-05-16T13:06:59.138Z,19.02
2023-05-16T13:09:32.794Z,17.40
2023-05-16T13:12:01.876Z,16.98
2023-05-16T13:14:30.528Z,16.57
2023-05-16T13:16:59.553Z,16.10
2023-05-16T13:19:28.002Z,16.31
2023-05-16T13:21:56.467Z,17.19
2023-05-16T13:24:25.417Z,16.84
2023-05-16T13:26:55.452Z,16.63
2023-05-16T13:29:24.042Z,17.02
2023-05-16T13:31:52.481Z,17.66
2023-05-16T13:34:23.440Z,16.95
2023-05-16T13:36:54.368Z,16.59
2023-05-16T13:39:23.999Z,16.77
2023-05-16T13:41:53.113Z,16.95
2023-05-16T13:44:23.179Z,17.40
2023-05-16T13:46:51.344Z,17.65
2023-05-16T13:49:19.920Z,18.26
2023-05-16T13:51:48.470Z,17.92
2023-05-16T13:54:18.767Z,17.15
2023-05-16T13:56:47.283Z,16.83
2023-05-16T13:59:23.705Z,16.46
2023-05-16T14:02:03.472Z,16.14
2023-05-16T14:04:31.975Z,16.51
2023-05-16T14:07:00.286Z,16.86
2023-05-16T14:09:31.647Z,17.06
2023-05-16T14:12:00.042Z,17.28
2023-05-16T14:14:28.213Z,17.07
2023-05-16T14:16:56.718Z,17.80
2023-05-16T14:19:28.485Z,18.33
2023-05-16T14:21:57.273Z,18.48
2023-05-16T14:24:25.676Z,18.25
2023-05-16T14:26:58.556Z,18.60
2023-05-16T14:29:26.973Z,18.39
2023-05-16T14:31:55.850Z,18.16
2023-05-16T14:34:24.283Z,18.15
2023-05-16T14:36:54.603Z,18.05
2023-05-16T14:39:22.804Z,18.43
2023-05-16T14:41:52.191Z,18.00
2023-05-16T14:44:21.854Z,18.78
2023-05-16T14:46:50.274Z,19.34
2023-05-16T14:49:18.786Z,18.93
2023-05-16T14:51:49.492Z,18.82
2023-05-16T14:54:19.597Z,19.30
2023-05-16T14:56:48.057Z,18.88
2023-05-16T14:59:16.819Z,18.21
2023-05-16T15:01:45.379Z,17.60
2023-05-16T15:04:14.094Z,17.15
2023-05-16T15:06:42.502Z,16.91
2023-05-16T15:09:13.732Z,17.51
2023-05-16T15:11:43.796Z,18.02
2023-05-16T15:14:12.282Z,18.54
2023-05-16T15:16:40.729Z,19.27
2023-05-16T15:19:09.404Z,19.76
2023-05-16T15:21:37.680Z,20.37
2023-05-16T15:24:06.978Z,20.19
2023-05-16T15:26:35.803Z,19.99
2023-05-16T15:29:05.914Z,19.07
2023-05-16T15:31:35.480Z,17.90
2023-05-16T15:34:06.596Z,18.06
2023-05-16T15:36:37.837Z,17.82
2023-05-16T15:39:06.392Z,18.16
2023-05-16T15:41:56.911Z,18.38
2023-05-16T15:44:25.474Z,17.73
2023-05-16T15:46:55.037Z,17.12
2023-05-16T15:49:23.466Z,16.60
2023-05-16T15:51:52.235Z,17.37
2023-05-16T15:54:21.004Z,17.56
2023-05-16T15:56:51.093Z,17.12
2023-05-16T15:59:19.849Z,17.49
2023-05-16T16:01:50.193Z,17.96
2023-05-16T16:04:23.400Z,17.53
2023-05-16T16:06:52.310Z,17.84
2023-05-16T16:09:20.459Z,18.09
2023-05-16T16:11:49.883Z,17.87
2023-05-16T16:14:19.389Z,17.86
2023-05-16T16:16:49.531Z,18.67
2023-05-16T16:19:18.194Z,17.38
2023-05-16T16:21:47.323Z,17.12
2023-05-16T16:24:16.304Z,16.96
2023-05-16T16:26:45.944Z,16.23
2023-05-16T16:29:15.837Z,16.49
2023-05-16T16:31:44.660Z,16.25
2023-05-16T16:34:16.779Z,16.27
2023-05-16T16:36:45.773Z,16.23
2023-05-16T16:39:14.120Z,16.48
2023-05-16T16:41:42.645Z,16.90
2023-05-16T16:44:11.197Z,17.55
2023-05-16T16:46:40.320Z,17.49
2023-05-16T16:49:08.695Z,17.42
2023-05-16T16:51:38.467Z,17.41
2023-05-16T16:54:06.930Z,17.25
2023-05-16T16:56:36.315Z,17.06
2023-05-16T16:59:04.899Z,17.21
2023-05-16T17:01:35.070Z,17.12
2023-05-16T17:04:03.478Z,17.28
2023-05-16T17:06:32.329Z,17.64
2023-05-16T17:09:07.442Z,18.07
2023-05-16T17:11:37.369Z,17.30
2023-05-16T17:14:06.511Z,17.26
2023-05-16T17:16:35.353Z,17.07
2023-05-16T17:19:07.529Z,16.78
2023-05-16T17:21:37.190Z,16.97
2023-05-16T17:24:08.553Z,16.82
2023-05-16T17:26:39.410Z,16.59
2023-05-16T17:29:07.907Z,16.87
2023-05-16T17:31:36.908Z,16.90
2023-05-16T17:34:06.363Z,16.27
2023-05-16T17:36:35.040Z,15.96
2023-05-16T17:39:08.025Z,15.86
2023-05-16T17:41:39.266Z,15.81
2023-05-16T17:44:08.292Z,15.94
2023-05-16T17:46:38.639Z,15.79
2023-05-16T17:49:07.670Z,15.79
2023-05-16T17:51:48.046Z,15.57
2023-05-16T17:54:18.683Z,15.44
2023-05-16T17:56:49.619Z,15.50
2023-05-16T17:59:18.477Z,15.42
2023-05-16T18:01:46.934Z,15.52
2023-05-16T18:04:15.567Z,15.89
2023-05-16T18:06:44.480Z,16.24
2023-05-16T18:09:15.242Z,16.25
2023-05-16T18:11:43.737Z,16.12
2023-05-16T18:14:15.683Z,15.98
2023-05-16T18:16:45.482Z,15.55
2023-05-16T18:19:13.956Z,15.64
2023-05-16T18:21:44.522Z,15.51
2023-05-16T18:24:13.417Z,15.63
2023-05-16T18:26:42.155Z,15.62
2023-05-16T18:29:11.585Z,15.12
2023-05-16T18:31:42.639Z,15.31
2023-05-16T18:34:12.881Z,15.43
2023-05-16T18:36:41.351Z,15.27
2023-05-16T18:39:14.109Z,15.18
2023-05-16T18:41:46.755Z,15.12
2023-05-16T18:44:23.004Z,15.05
2023-05-16T18:46:54.939Z,15.02
2023-05-16T18:49:23.388Z,14.54
2023-05-16T18:51:54.344Z,14.43
2023-05-16T18:54:24.423Z,14.44
2023-05-16T18:56:53.600Z,14.11
2023-05-16T18:59:23.578Z,13.82
2023-05-16T19:01:53.416Z,13.56
2023-05-16T19:04:22.130Z,13.30
2023-05-16T19:06:50.896Z,13.29
2023-05-16T19:09:19.697Z,13.30
2023-05-16T19:11:48.489Z,13.21
2023-05-16T19:14:17.127Z,13.11
2023-05-16T19:16:45.852Z,13.14
2023-05-16T19:19:15.919Z,12.98
2023-05-16T19:21:44.403Z,12.92
2023-05-16T19:24:14.071Z,12.79
2023-05-16T19:26:42.619Z,12.71
2023-05-16T19:29:12.906Z,12.66
2023-05-16T19:31:41.304Z,12.50
2023-05-16T19:34:09.861Z,12.33
2023-05-16T19:36:39.661Z,12.22
2023-05-16T19:39:09.055Z,12.18
2023-05-16T19:41:37.915Z,12.23
2023-05-16T19:44:07.669Z,12.11
2023-05-16T19:46:37.145Z,11.97
2023-05-16T19:49:07.766Z,11.90
2023-05-16T19:51:41.753Z,11.88
2023-05-16T19:54:14.153Z,11.80
2023-05-16T19:56:42.572Z,11.75
2023-05-16T19:59:11.499Z,11.68
2023-05-16T20:04:09.807Z,11.68
2023-05-16T20:06:39.051Z,11.62
2023-05-16T20:09:07.707Z,11.59
2023-05-16T20:11:39.321Z,11.67
2023-05-16T20:14:08.812Z,11.71
2023-05-16T20:16:37.531Z,11.69
2023-05-16T20:19:07.108Z,11.81
2023-05-16T20:21:36.007Z,11.93
2023-05-16T20:24:06.189Z,11.88
2023-05-16T20:26:34.477Z,11.81
2023-05-16T20:29:05.518Z,11.86
2023-05-16T20:31:34.111Z,11.66
2023-05-16T20:34:02.927Z,11.72
2023-05-16T20:36:32.005Z,11.87
2023-05-16T20:39:00.211Z,11.59
2023-05-16T20:41:28.789Z,11.46
2023-05-16T20:43:57.691Z,11.34
2023-05-16T20:46:27.500Z,11.14
2023-05-16T20:48:55.931Z,11.13
2023-05-16T20:51:24.481Z,11.02
2023-05-16T20:53:53.328Z,10.98
2023-05-16T20:56:22.573Z,10.96
2023-05-16T20:58:50.829Z,10.98
2023-05-16T21:01:19.294Z,10.95
2023-05-16T21:03:49.531Z,10.94
2023-05-16T21:06:18.728Z,10.95
2023-05-16T21:08:47.142Z,10.94
2023-05-16T21:11:15.562Z,10.96
2023-05-16T21:13:43.744Z,10.87
2023-05-16T21:16:12.784Z,10.84
2023-05-16T21:18:41.152Z,10.66
2023-05-16T21:21:11.190Z,10.75
2023-05-16T21:23:39.619Z,10.78
2023-05-16T21:26:08.723Z,10.72
2023-05-16T21:28:46.077Z,10.79
2023-05-16T21:31:22.670Z,10.72
2023-05-16T21:33:52.664Z,10.60
2023-05-16T21:36:23.163Z,10.71
2023-05-16T21:38:51.558Z,10.51
2023-05-16T21:41:21.844Z,10.59
2023-05-16T21:43:50.182Z,10.56
2023-05-16T21:46:18.698Z,10.59
2023-05-16T21:48:47.571Z,10.50
2023-05-16T21:51:16.177Z,10.38
2023-05-16T21:53:46.684Z,10.48
2023-05-16T21:56:15.139Z,10.51
2023-05-16T21:58:43.994Z,10.40
2023-05-16T22:01:13.176Z,10.40
2023-05-16T22:03:43.567Z,10.35
2023-05-16T22:06:12.149Z,10.38
2023-05-16T22:08:40.824Z,10.42
2023-05-16T22:11:12.560Z,10.30
2023-05-16T22:13:41.661Z,10.29
2023-05-16T22:16:11.277Z,10.24
2023-05-16T22:18:39.909Z,10.05
2023-05-16T22:21:09.633Z,10.20
2023-05-16T22:23:38.055Z,10.09
2023-05-16T22:26:07.302Z,10.24
2023-05-16T22:28:37.248Z,10.30
2023-05-16T22:31:05.769Z,10.16
2023-05-16T22:33:34.374Z,10.33
2023-05-16T22:36:03.837Z,10.12
2023-05-16T22:38:32.254Z,10.21
2023-05-16T22:41:01.774Z,10.23
2023-05-16T22:43:30.114Z,10.26
2023-05-16T22:46:02.826Z,10.21
2023-05-16T22:48:31.806Z,10.29
2023-05-16T22:51:00.062Z,10.20
2023-05-16T22:53:28.516Z,10.17
2023-05-16T22:55:59.519Z,10.23
2023-05-16T22:58:28.191Z,10.06
2023-05-16T23:00:58.135Z,10.11
2023-05-16T23:03:28.202Z,9.95
2023-05-16T23:05:57.197Z,9.95
2023-05-16T23:08:25.529Z,9.85
2023-05-16T23:10:53.768Z,9.77
2023-05-16T23:13:21.804Z,9.70
2023-05-16T23:15:49.987Z,9.62
2023-05-16T23:18:19.601Z,9.51
2023-05-16T23:20:49.563Z,9.53
2023-05-16T23:23:17.730Z,9.52
2023-05-16T23:25:46.512Z,9.47
2023-05-16T23:28:19.108Z,9.41
2023-05-16T23:30:47.578Z,9.41
2023-05-16T23:33:16.968Z,9.35
2023-05-16T23:35:49.344Z,9.33
2023-05-16T23:38:19.250Z,9.36
2023-05-16T23:40:48.689Z,9.29
2023-05-16T23:43:18.464Z,9.04
2023-05-16T23:45:46.795Z,9.00
2023-05-16T23:48:15.683Z,8.81
2023-05-16T23:50:43.970Z,8.70
2023-05-16T23:53:14.369Z,8.76
2023-05-16T23:55:42.878Z,8.70
2023-05-16T23:58:11.114Z,8.60
